Language selection

My Weather Profile Weather Topics  | 

Atlantic - Newfoundland: Past 24 Hour Conditions

 

West Chedabucto Bay - 44489

11:00 PM ADT 24 September 2022Buoy position: 45.49N 61.14W
Disclaimer

This table is a summary of hourly weather conditions for the past 24 hours.
Please note that these observations might not always be representative of weather conditions over their associated marine area.

Date / Time
(ADT)
Wind(knots) Wave height(m) Wave period(s) Pressure(kPa) Air tempC) Water tempC)
24 September 2022
23:00 WSW 22 gust 24 0.8 4.7 99.7 12 16
22:00 WSW 21 gust 24 0.7 5.7 99.7 12 16
21:00 W 17 gust 23 0.8 6.2 99.6 12 16
20:00 WSW 22 gust 28 1.0 5.4 99.4 12 16
19:00 WSW 27 gust 32 1.0 5.0 99.2 12 16
18:00 WSW 23 gust 29 1.0 5.2 99.0 12 16
17:00 WSW 26 gust 33 1.3 5.2 98.8 12 16
16:00 WSW 30 gust 39 1.5 4.9 98.6 12 16
15:00 WSW 34 gust 42 1.9 5.2 98.3 12 16
14:00 WSW 36 gust 47 1.8 5.6 98.0 12 16
13:00 WSW 38 gust 46 2.1 5.9 97.7 13 16
12:00 WSW 38 gust 47 2.4 5.9 97.4 12 16
11:00 WSW 41 gust 50 2.5 6.4 97.0 12 16
10:00 SW 39 gust 46 2.3 6.7 96.6 12 16
9:00 SW 39 gust 49 2.7 6.9 96.1 14 16
8:00 SW 40 gust 48 2.6 6.7 95.5 14 16
7:00 SW 34 gust 42 2.6 8.7 94.9 15 16
6:00 SW 28 gust 38 3.0 11.6 94.2 16 16
5:00 NNW 23 gust 32 3.2 11.7 93.4 16 16
4:00 NE 23 gust 28 3.5 11.9 93.6 16 16
3:00 ENE 34 gust 44 3.7 10.1 94.0 16 16
2:00 ENE 39 gust 50 2.9 8.0 94.6 17 16
1:00 ENE 41 gust 50 1.9 5.0 95.3 18 17
0:00 NNE 36 gust 46 1.2 4.3 96.2 15 17
23 September 2022
23:00 NNE 36 gust 48 1.3 4.2 97.3 14 17

Zoom-in to make a selection

Map of Atlantic - Newfoundland marine weather areas Banquereau - 44139 East Chedabucto Bay - 44488 West Chedabucto Bay - 44489 Blanc-Sablon Airport Cap Whittle Chevery Natashquan Airport Heath Point Îles de la Madeleine Airport Miscou Island Eskasoni (First Nations) Grand Étang Ingonish Beach North Mountain St.Paul Island J.A. Douglas McCurdy Sydney Airport Charlottetown Airport East Point North Cape Argentia Berry Hill Bonavista Burgeo Cape Race Corner Brook Daniel's Harbour Englee Ferolle Point La Scie Port aux Basques Sagona Island St. Anthony Airport St. John's Int'l Airport St. Lawrence Stephenville Airport Twillingate Winterland Branch Hill Wreckhouse Grates Cove Pool's Island Marticot Island Long Pond Cartwright Airport Mary's Harbour
Legend:
buoy Buoy
land station Land Station

Atlantic - Newfoundland Area

Another Region

What we are doing

Date modified: